sensor_id;sensor_type;location;lat;lon;timestamp;pressure;altitude;pressure_sealevel;temperature
45393;BMP280;31129;44.810;10.334;2022-11-11T00:01:10;102141.44;;;13.73
45393;BMP280;31129;44.810;10.334;2022-11-11T00:03:55;102145.28;;;13.67
45393;BMP280;31129;44.810;10.334;2022-11-11T00:06:39;102139.94;;;13.72
45393;BMP280;31129;44.810;10.334;2022-11-11T00:09:23;102144.09;;;13.77
45393;BMP280;31129;44.810;10.334;2022-11-11T00:12:07;102153.09;;;13.77
45393;BMP280;31129;44.810;10.334;2022-11-11T00:14:51;102148.03;;;13.76
45393;BMP280;31129;44.810;10.334;2022-11-11T00:17:35;102153.66;;;13.72
45393;BMP280;31129;44.810;10.334;2022-11-11T00:20:38;102162.78;;;13.69
45393;BMP280;31129;44.810;10.334;2022-11-11T00:23:41;102163.38;;;13.64
45393;BMP280;31129;44.810;10.334;2022-11-11T00:26:44;102166.13;;;13.64
45393;BMP280;31129;44.810;10.334;2022-11-11T00:29:31;102172.22;;;13.68
45393;BMP280;31129;44.810;10.334;2022-11-11T00:32:18;102163.50;;;13.61
45393;BMP280;31129;44.810;10.334;2022-11-11T00:35:06;102167.50;;;13.69
45393;BMP280;31129;44.810;10.334;2022-11-11T00:38:11;102168.44;;;13.75
45393;BMP280;31129;44.810;10.334;2022-11-11T00:41:20;102164.00;;;13.68
45393;BMP280;31129;44.810;10.334;2022-11-11T00:44:04;102166.13;;;13.64
45393;BMP280;31129;44.810;10.334;2022-11-11T00:46:48;102157.63;;;13.71
45393;BMP280;31129;44.810;10.334;2022-11-11T00:49:51;102165.53;;;13.69
45393;BMP280;31129;44.810;10.334;2022-11-11T00:52:54;102163.41;;;13.73
45393;BMP280;31129;44.810;10.334;2022-11-11T00:55:38;102166.13;;;13.73
45393;BMP280;31129;44.810;10.334;2022-11-11T00:58:22;102165.81;;;13.62
45393;BMP280;31129;44.810;10.334;2022-11-11T01:01:06;102160.66;;;13.64
45393;BMP280;31129;44.810;10.334;2022-11-11T01:03:50;102159.28;;;13.69
45393;BMP280;31129;44.810;10.334;2022-11-11T01:06:35;102161.72;;;13.67
45393;BMP280;31129;44.810;10.334;2022-11-11T01:09:20;102151.34;;;13.62
45393;BMP280;31129;44.810;10.334;2022-11-11T01:12:04;102155.16;;;13.64
45393;BMP280;31129;44.810;10.334;2022-11-11T01:14:48;102160.97;;;13.66
45393;BMP280;31129;44.810;10.334;2022-11-11T01:17:32;102160.00;;;13.60
45393;BMP280;31129;44.810;10.334;2022-11-11T01:20:16;102154.41;;;13.64
45393;BMP280;31129;44.810;10.334;2022-11-11T01:23:00;102158.78;;;13.61
45393;BMP280;31129;44.810;10.334;2022-11-11T01:25:44;102157.91;;;13.64
45393;BMP280;31129;44.810;10.334;2022-11-11T01:28:29;102149.81;;;13.61
45393;BMP280;31129;44.810;10.334;2022-11-11T01:31:14;102145.09;;;13.61
45393;BMP280;31129;44.810;10.334;2022-11-11T01:33:59;102144.44;;;13.57
45393;BMP280;31129;44.810;10.334;2022-11-11T01:36:42;102141.97;;;13.50
45393;BMP280;31129;44.810;10.334;2022-11-11T01:39:27;102142.47;;;13.58
45393;BMP280;31129;44.810;10.334;2022-11-11T01:42:10;102152.19;;;13.49
45393;BMP280;31129;44.810;10.334;2022-11-11T01:44:54;102143.66;;;13.47
45393;BMP280;31129;44.810;10.334;2022-11-11T01:47:38;102146.25;;;13.51
45393;BMP280;31129;44.810;10.334;2022-11-11T01:50:41;102156.63;;;13.47
45393;BMP280;31129;44.810;10.334;2022-11-11T01:53:25;102152.66;;;13.48
45393;BMP280;31129;44.810;10.334;2022-11-11T01:56:09;102162.50;;;13.45
45393;BMP280;31129;44.810;10.334;2022-11-11T01:58:57;102159.81;;;13.54
45393;BMP280;31129;44.810;10.334;2022-11-11T02:01:44;102152.81;;;13.53
45393;BMP280;31129;44.810;10.334;2022-11-11T02:04:28;102158.88;;;13.48
45393;BMP280;31129;44.810;10.334;2022-11-11T02:07:32;102160.28;;;13.53
45393;BMP280;31129;44.810;10.334;2022-11-11T02:10:21;102155.56;;;13.53
45393;BMP280;31129;44.810;10.334;2022-11-11T02:13:13;102159.06;;;13.54
45393;BMP280;31129;44.810;10.334;2022-11-11T02:16:30;102160.13;;;13.57
45393;BMP280;31129;44.810;10.334;2022-11-11T02:19:17;102167.91;;;13.58
45393;BMP280;31129;44.810;10.334;2022-11-11T02:22:07;102167.16;;;13.58
45393;BMP280;31129;44.810;10.334;2022-11-11T02:24:53;102166.59;;;13.63
45393;BMP280;31129;44.810;10.334;2022-11-11T02:27:39;102178.00;;;13.61
45393;BMP280;31129;44.810;10.334;2022-11-11T02:30:25;102184.41;;;13.67
45393;BMP280;31129;44.810;10.334;2022-11-11T02:33:09;102183.97;;;13.69
45393;BMP280;31129;44.810;10.334;2022-11-11T02:35:55;102191.00;;;13.70
45393;BMP280;31129;44.810;10.334;2022-11-11T02:38:41;102177.28;;;13.70
45393;BMP280;31129;44.810;10.334;2022-11-11T02:41:26;102183.09;;;13.72
45393;BMP280;31129;44.810;10.334;2022-11-11T02:44:29;102176.81;;;13.71
45393;BMP280;31129;44.810;10.334;2022-11-11T02:47:13;102178.19;;;13.67
45393;BMP280;31129;44.810;10.334;2022-11-11T02:49:57;102185.25;;;13.77
45393;BMP280;31129;44.810;10.334;2022-11-11T02:52:41;102188.00;;;13.77
45393;BMP280;31129;44.810;10.334;2022-11-11T02:55:24;102195.63;;;13.82
45393;BMP280;31129;44.810;10.334;2022-11-11T02:58:09;102191.66;;;13.83
45393;BMP280;31129;44.810;10.334;2022-11-11T03:00:53;102196.72;;;13.84
45393;BMP280;31129;44.810;10.334;2022-11-11T03:03:37;102201.44;;;13.84
45393;BMP280;31129;44.810;10.334;2022-11-11T03:06:21;102204.94;;;13.84
45393;BMP280;31129;44.810;10.334;2022-11-11T03:09:05;102195.94;;;13.84
45393;BMP280;31129;44.810;10.334;2022-11-11T03:11:49;102194.25;;;13.86
45393;BMP280;31129;44.810;10.334;2022-11-11T03:14:32;102187.56;;;13.87
45393;BMP280;31129;44.810;10.334;2022-11-11T03:17:16;102192.75;;;13.85
45393;BMP280;31129;44.810;10.334;2022-11-11T03:20:19;102201.47;;;13.93
45393;BMP280;31129;44.810;10.334;2022-11-11T03:23:22;102203.00;;;13.94
45393;BMP280;31129;44.810;10.334;2022-11-11T03:26:06;102198.72;;;13.93
45393;BMP280;31129;44.810;10.334;2022-11-11T03:28:52;102203.00;;;13.94
45393;BMP280;31129;44.810;10.334;2022-11-11T03:31:36;102205.75;;;13.94
45393;BMP280;31129;44.810;10.334;2022-11-11T03:34:20;102206.06;;;13.96
45393;BMP280;31129;44.810;10.334;2022-11-11T03:37:09;102201.63;;;13.99
45393;BMP280;31129;44.810;10.334;2022-11-11T03:40:12;102204.53;;;13.95
45393;BMP280;31129;44.810;10.334;2022-11-11T03:42:57;102204.09;;;13.97
45393;BMP280;31129;44.810;10.334;2022-11-11T03:45:41;102209.13;;;13.98
45393;BMP280;31129;44.810;10.334;2022-11-11T03:48:28;102213.84;;;13.98
45393;BMP280;31129;44.810;10.334;2022-11-11T03:51:12;102209.56;;;13.97
45393;BMP280;31129;44.810;10.334;2022-11-11T03:53:56;102199.50;;;13.94
45393;BMP280;31129;44.810;10.334;2022-11-11T03:56:40;102208.94;;;13.93
45393;BMP280;31129;44.810;10.334;2022-11-11T03:59:24;102200.69;;;13.93
45393;BMP280;31129;44.810;10.334;2022-11-11T04:02:12;102204.34;;;13.89
45393;BMP280;31129;44.810;10.334;2022-11-11T04:05:15;102200.22;;;13.85
45393;BMP280;31129;44.810;10.334;2022-11-11T04:08:19;102209.38;;;13.91
45393;BMP280;31129;44.810;10.334;2022-11-11T04:11:45;102212.69;;;13.86
45393;BMP280;31129;44.810;10.334;2022-11-11T04:14:31;102207.09;;;13.89
45393;BMP280;31129;44.810;10.334;2022-11-11T04:17:34;102204.34;;;13.89
45393;BMP280;31129;44.810;10.334;2022-11-11T04:20:18;102209.84;;;13.89
45393;BMP280;31129;44.810;10.334;2022-11-11T04:23:20;102206.19;;;13.93
45393;BMP280;31129;44.810;10.334;2022-11-11T04:26:04;102215.19;;;13.93
45393;BMP280;31129;44.810;10.334;2022-11-11T04:28:48;102209.50;;;13.87
45393;BMP280;31129;44.810;10.334;2022-11-11T04:31:51;102209.97;;;13.86
45393;BMP280;31129;44.810;10.334;2022-11-11T04:34:59;102215.31;;;13.89
45393;BMP280;31129;44.810;10.334;2022-11-11T04:37:48;102229.38;;;13.92
45393;BMP280;31129;44.810;10.334;2022-11-11T04:40:35;102231.34;;;13.91
45393;BMP280;31129;44.810;10.334;2022-11-11T04:43:38;102232.56;;;13.90
45393;BMP280;31129;44.810;10.334;2022-11-11T04:46:41;102231.91;;;13.86
45393;BMP280;31129;44.810;10.334;2022-11-11T04:49:25;102221.69;;;13.86
45393;BMP280;31129;44.810;10.334;2022-11-11T04:52:09;102230.69;;;13.87
45393;BMP280;31129;44.810;10.334;2022-11-11T04:55:11;102222.94;;;13.85
45393;BMP280;31129;44.810;10.334;2022-11-11T04:58:15;102224.91;;;13.85
45393;BMP280;31129;44.810;10.334;2022-11-11T05:01:00;102224.44;;;13.77
45393;BMP280;31129;44.810;10.334;2022-11-11T05:03:44;102219.19;;;13.70
45393;BMP280;31129;44.810;10.334;2022-11-11T05:06:28;102226.81;;;13.66
45393;BMP280;31129;44.810;10.334;2022-11-11T05:09:31;102225.41;;;13.62
45393;BMP280;31129;44.810;10.334;2022-11-11T05:12:16;102221.06;;;13.51
45393;BMP280;31129;44.810;10.334;2022-11-11T05:15:00;102225.94;;;13.47
45393;BMP280;31129;44.810;10.334;2022-11-11T05:18:03;102224.78;;;13.36
45393;BMP280;31129;44.810;10.334;2022-11-11T05:21:13;102238.47;;;13.36
45393;BMP280;31129;44.810;10.334;2022-11-11T05:24:04;102239.47;;;13.29
45393;BMP280;31129;44.810;10.334;2022-11-11T05:27:07;102246.00;;;13.23
45393;BMP280;31129;44.810;10.334;2022-11-11T05:29:51;102249.06;;;13.25
45393;BMP280;31129;44.810;10.334;2022-11-11T05:32:35;102250.81;;;13.31
45393;BMP280;31129;44.810;10.334;2022-11-11T05:35:20;102258.38;;;13.27
45393;BMP280;31129;44.810;10.334;2022-11-11T05:38:04;102257.66;;;13.14
45393;BMP280;31129;44.810;10.334;2022-11-11T05:41:03;102251.63;;;13.19
45393;BMP280;31129;44.810;10.334;2022-11-11T05:43:50;102241.41;;;13.20
45393;BMP280;31129;44.810;10.334;2022-11-11T05:46:34;102250.41;;;13.20
45393;BMP280;31129;44.810;10.334;2022-11-11T05:49:19;102234.25;;;13.22
45393;BMP280;31129;44.810;10.334;2022-11-11T05:52:03;102240.66;;;13.19
45393;BMP280;31129;44.810;10.334;2022-11-11T05:54:48;102238.22;;;13.21
45393;BMP280;31129;44.810;10.334;2022-11-11T05:57:32;102237.75;;;13.23
45393;BMP280;31129;44.810;10.334;2022-11-11T06:00:16;102247.47;;;13.14
45393;BMP280;31129;44.810;10.334;2022-11-11T06:03:04;102258.06;;;13.25
45393;BMP280;31129;44.810;10.334;2022-11-11T06:05:48;102247.84;;;13.26
45393;BMP280;31129;44.810;10.334;2022-11-11T06:08:32;102250.09;;;13.18
45393;BMP280;31129;44.810;10.334;2022-11-11T06:11:17;102262.91;;;13.21
45393;BMP280;31129;44.810;10.334;2022-11-11T06:14:01;102263.72;;;13.09
45393;BMP280;31129;44.810;10.334;2022-11-11T06:16:45;102259.31;;;13.11
45393;BMP280;31129;44.810;10.334;2022-11-11T06:19:29;102265.22;;;13.10
45393;BMP280;31129;44.810;10.334;2022-11-11T06:22:13;102262.47;;;13.10
45393;BMP280;31129;44.810;10.334;2022-11-11T06:24:57;102264.16;;;13.07
45393;BMP280;31129;44.810;10.334;2022-11-11T06:28:01;102274.38;;;12.94
45393;BMP280;31129;44.810;10.334;2022-11-11T06:30:45;102278.97;;;12.97
45393;BMP280;31129;44.810;10.334;2022-11-11T06:33:31;102279.72;;;12.98
45393;BMP280;31129;44.810;10.334;2022-11-11T06:36:22;102289.28;;;12.93
45393;BMP280;31129;44.810;10.334;2022-11-11T06:39:06;102287.44;;;12.90
45393;BMP280;31129;44.810;10.334;2022-11-11T06:41:50;102298.38;;;12.90
45393;BMP280;31129;44.810;10.334;2022-11-11T06:44:34;102295.97;;;12.92
45393;BMP280;31129;44.810;10.334;2022-11-11T06:47:18;102310.00;;;12.94
45393;BMP280;31129;44.810;10.334;2022-11-11T06:50:02;102313.50;;;12.95
45393;BMP280;31129;44.810;10.334;2022-11-11T06:52:47;102311.00;;;13.00
45393;BMP280;31129;44.810;10.334;2022-11-11T06:55:32;102315.94;;;12.93
45393;BMP280;31129;44.810;10.334;2022-11-11T06:58:18;102311.84;;;12.97
45393;BMP280;31129;44.810;10.334;2022-11-11T07:01:06;102319.22;;;13.57
45393;BMP280;31129;44.810;10.334;2022-11-11T07:03:50;102308.41;;;13.53
45393;BMP280;31129;44.810;10.334;2022-11-11T07:06:34;102312.38;;;13.17
45393;BMP280;31129;44.810;10.334;2022-11-11T07:09:19;102317.13;;;13.04
45393;BMP280;31129;44.810;10.334;2022-11-11T07:12:03;102313.75;;;13.00
45393;BMP280;31129;44.810;10.334;2022-11-11T07:14:47;102319.25;;;12.88
45393;BMP280;31129;44.810;10.334;2022-11-11T07:17:31;102317.59;;;12.77
45393;BMP280;31129;44.810;10.334;2022-11-11T07:20:15;102323.31;;;12.70
45393;BMP280;31129;44.810;10.334;2022-11-11T07:22:59;102325.03;;;12.64
45393;BMP280;31129;44.810;10.334;2022-11-11T07:25:43;102328.22;;;12.63
45393;BMP280;31129;44.810;10.334;2022-11-11T07:28:27;102321.88;;;12.66
45393;BMP280;31129;44.810;10.334;2022-11-11T07:31:11;102320.13;;;12.59
45393;BMP280;31129;44.810;10.334;2022-11-11T07:33:55;102326.03;;;12.58
45393;BMP280;31129;44.810;10.334;2022-11-11T07:36:39;102332.91;;;12.50
45393;BMP280;31129;44.810;10.334;2022-11-11T07:39:23;102318.91;;;12.48
45393;BMP280;31129;44.810;10.334;2022-11-11T07:42:07;102317.16;;;12.54
45393;BMP280;31129;44.810;10.334;2022-11-11T07:44:51;102326.38;;;12.60
45393;BMP280;31129;44.810;10.334;2022-11-11T07:47:36;102333.25;;;12.52
45393;BMP280;31129;44.810;10.334;2022-11-11T07:50:20;102332.91;;;12.50
45393;BMP280;31129;44.810;10.334;2022-11-11T07:53:05;102328.00;;;12.44
45393;BMP280;31129;44.810;10.334;2022-11-11T07:55:48;102334.03;;;12.39
45393;BMP280;31129;44.810;10.334;2022-11-11T07:58:33;102336.44;;;12.50
45393;BMP280;31129;44.810;10.334;2022-11-11T08:01:17;102329.53;;;12.33
45393;BMP280;31129;44.810;10.334;2022-11-11T08:04:01;102348.56;;;12.36
45393;BMP280;31129;44.810;10.334;2022-11-11T08:06:45;102344.31;;;12.48
45393;BMP280;31129;44.810;10.334;2022-11-11T08:09:29;102336.09;;;12.48
45393;BMP280;31129;44.810;10.334;2022-11-11T08:12:13;102343.44;;;12.51
45393;BMP280;31129;44.810;10.334;2022-11-11T08:15:16;102346.19;;;12.51
45393;BMP280;31129;44.810;10.334;2022-11-11T08:18:00;102352.09;;;12.50
45393;BMP280;31129;44.810;10.334;2022-11-11T08:20:44;102348.63;;;12.62
45393;BMP280;31129;44.810;10.334;2022-11-11T08:23:28;102343.78;;;12.66
45393;BMP280;31129;44.810;10.334;2022-11-11T08:26:16;102352.91;;;12.75
45393;BMP280;31129;44.810;10.334;2022-11-11T08:29:00;102348.28;;;12.72
45393;BMP280;31129;44.810;10.334;2022-11-11T08:31:44;102359.78;;;12.80
45393;BMP280;31129;44.810;10.334;2022-11-11T08:34:29;102365.25;;;12.93
45393;BMP280;31129;44.810;10.334;2022-11-11T08:37:13;102368.56;;;12.88
45393;BMP280;31129;44.810;10.334;2022-11-11T08:39:57;102369.09;;;12.95
45393;BMP280;31129;44.810;10.334;2022-11-11T08:42:41;102368.84;;;13.02
45393;BMP280;31129;44.810;10.334;2022-11-11T08:45:25;102376.53;;;13.07
45393;BMP280;31129;44.810;10.334;2022-11-11T08:48:09;102376.34;;;13.02
45393;BMP280;31129;44.810;10.334;2022-11-11T08:50:54;102378.84;;;13.09
45393;BMP280;31129;44.810;10.334;2022-11-11T08:53:38;102381.88;;;13.11
45393;BMP280;31129;44.810;10.334;2022-11-11T08:56:21;102378.50;;;13.07
45393;BMP280;31129;44.810;10.334;2022-11-11T08:59:06;102371.25;;;13.13
45393;BMP280;31129;44.810;10.334;2022-11-11T09:01:50;102371.69;;;13.11
45393;BMP280;31129;44.810;10.334;2022-11-11T09:04:34;102361.28;;;13.19
45393;BMP280;31129;44.810;10.334;2022-11-11T09:07:18;102363.78;;;13.26
45393;BMP280;31129;44.810;10.334;2022-11-11T09:10:02;102366.28;;;13.33
45393;BMP280;31129;44.810;10.334;2022-11-11T09:12:47;102370.25;;;13.32
45393;BMP280;31129;44.810;10.334;2022-11-11T09:15:31;102368.03;;;13.40
45393;BMP280;31129;44.810;10.334;2022-11-11T09:18:15;102372.38;;;13.50
45393;BMP280;31129;44.810;10.334;2022-11-11T09:20:59;102380.03;;;13.55
45393;BMP280;31129;44.810;10.334;2022-11-11T09:23:43;102375.78;;;13.54
45393;BMP280;31129;44.810;10.334;2022-11-11T09:26:30;102373.09;;;13.63
45393;BMP280;31129;44.810;10.334;2022-11-11T09:29:15;102384.59;;;13.71
45393;BMP280;31129;44.810;10.334;2022-11-11T09:31:59;102383.16;;;13.79
45393;BMP280;31129;44.810;10.334;2022-11-11T09:34:43;102401.00;;;13.83
45393;BMP280;31129;44.810;10.334;2022-11-11T09:37:27;102402.59;;;13.72
45393;BMP280;31129;44.810;10.334;2022-11-11T09:40:19;102393.34;;;13.78
45393;BMP280;31129;44.810;10.334;2022-11-11T09:43:16;102396.56;;;13.86
45393;BMP280;31129;44.810;10.334;2022-11-11T09:52:07;102402.97;;;14.05
45393;BMP280;31129;44.810;10.334;2022-11-11T09:58:12;102407.91;;;14.10
45393;BMP280;31129;44.810;10.334;2022-11-11T10:01:03;102409.16;;;14.18
45393;BMP280;31129;44.810;10.334;2022-11-11T10:04:04;102398.94;;;14.18
45393;BMP280;31129;44.810;10.334;2022-11-11T10:06:49;102403.88;;;14.23
45393;BMP280;31129;44.810;10.334;2022-11-11T10:12:56;102393.91;;;14.48
45393;BMP280;31129;44.810;10.334;2022-11-11T10:15:49;102395.44;;;14.49
45393;BMP280;31129;44.810;10.334;2022-11-11T10:21:44;102386.31;;;14.52
45393;BMP280;31129;44.810;10.334;2022-11-11T10:24:32;102382.66;;;14.55
45393;BMP280;31129;44.810;10.334;2022-11-11T10:27:20;102390.00;;;14.58
45393;BMP280;31129;44.810;10.334;2022-11-11T10:30:23;102392.28;;;14.59
45393;BMP280;31129;44.810;10.334;2022-11-11T10:33:16;102391.34;;;14.53
45393;BMP280;31129;44.810;10.334;2022-11-11T10:36:02;102381.63;;;14.61
45393;BMP280;31129;44.810;10.334;2022-11-11T10:41:39;102379.22;;;14.73
45393;BMP280;31129;44.810;10.334;2022-11-11T10:44:30;102382.72;;;14.82
45393;BMP280;31129;44.810;10.334;2022-11-11T10:50:14;102373.22;;;14.65
45393;BMP280;31129;44.810;10.334;2022-11-11T10:53:06;102371.91;;;14.70
45393;BMP280;31129;44.810;10.334;2022-11-11T10:59:02;102363.66;;;14.79
45393;BMP280;31129;44.810;10.334;2022-11-11T11:01:56;102359.38;;;14.78
45393;BMP280;31129;44.810;10.334;2022-11-11T11:04:49;102356.63;;;14.78
45393;BMP280;31129;44.810;10.334;2022-11-11T11:07:47;102343.34;;;14.76
45393;BMP280;31129;44.810;10.334;2022-11-11T11:10:38;102341.72;;;14.88
45393;BMP280;31129;44.810;10.334;2022-11-11T11:13:31;102348.72;;;14.89
45393;BMP280;31129;44.810;10.334;2022-11-11T11:16:24;102338.03;;;14.91
45393;BMP280;31129;44.810;10.334;2022-11-11T11:22:02;102347.41;;;15.21
45393;BMP280;31129;44.810;10.334;2022-11-11T11:24:47;102348.59;;;15.11
45393;BMP280;31129;44.810;10.334;2022-11-11T11:27:31;102347.22;;;15.24
45393;BMP280;31129;44.810;10.334;2022-11-11T11:30:20;102347.69;;;15.14
45393;BMP280;31129;44.810;10.334;2022-11-11T11:33:07;102348.75;;;15.25
45393;BMP280;31129;44.810;10.334;2022-11-11T11:35:51;102338.97;;;15.06
45393;BMP280;31129;44.810;10.334;2022-11-11T11:38:40;102340.06;;;15.18
45393;BMP280;31129;44.810;10.334;2022-11-11T11:44:31;102333.78;;;15.35
45393;BMP280;31129;44.810;10.334;2022-11-11T11:47:40;102333.00;;;15.53
45393;BMP280;31129;44.810;10.334;2022-11-11T11:56:41;102347.34;;;15.94
45393;BMP280;31129;44.810;10.334;2022-11-11T11:59:40;102339.53;;;15.92
45393;BMP280;31129;44.810;10.334;2022-11-11T12:05:49;102326.78;;;16.04
45393;BMP280;31129;44.810;10.334;2022-11-11T12:15:03;102320.28;;;16.25
45393;BMP280;31129;44.810;10.334;2022-11-11T12:17:58;102317.66;;;16.31
45393;BMP280;31129;44.810;10.334;2022-11-11T12:20:57;102330.41;;;16.52
45393;BMP280;31129;44.810;10.334;2022-11-11T12:27:24;102332.97;;;16.79
45393;BMP280;31129;44.810;10.334;2022-11-11T12:30:22;102338.34;;;16.83
45393;BMP280;31129;44.810;10.334;2022-11-11T12:43:19;102347.47;;;17.13
45393;BMP280;31129;44.810;10.334;2022-11-11T12:45:49;102346.94;;;17.00
45393;BMP280;31129;44.810;10.334;2022-11-11T13:01:16;102366.00;;;17.12
45393;BMP280;31129;44.810;10.334;2022-11-11T13:04:24;102370.41;;;17.19
45393;BMP280;31129;44.810;10.334;2022-11-11T13:15:58;102383.03;;;17.25
45393;BMP280;31129;44.810;10.334;2022-11-11T13:22:01;102373.44;;;17.21
45393;BMP280;31129;44.810;10.334;2022-11-11T13:24:50;102385.69;;;17.20
45393;BMP280;31129;44.810;10.334;2022-11-11T13:27:49;102367.91;;;17.21
45393;BMP280;31129;44.810;10.334;2022-11-11T13:33:40;102380.19;;;17.20
45393;BMP280;31129;44.810;10.334;2022-11-11T13:36:27;102368.19;;;17.08
45393;BMP280;31129;44.810;10.334;2022-11-11T13:39:45;102377.22;;;17.09
45393;BMP280;31129;44.810;10.334;2022-11-11T13:42:37;102383.47;;;17.09
45393;BMP280;31129;44.810;10.334;2022-11-11T13:45:36;102378.81;;;17.01
45393;BMP280;31129;44.810;10.334;2022-11-11T13:51:35;102371.28;;;17.01
45393;BMP280;31129;44.810;10.334;2022-11-11T13:54:23;102373.69;;;17.08
45393;BMP280;31129;44.810;10.334;2022-11-11T14:00:05;102370.72;;;16.97
45393;BMP280;31129;44.810;10.334;2022-11-11T14:08:59;102357.84;;;16.94
45393;BMP280;31129;44.810;10.334;2022-11-11T14:11:43;102358.78;;;16.91
45393;BMP280;31129;44.810;10.334;2022-11-11T14:17:16;102361.75;;;16.87
45393;BMP280;31129;44.810;10.334;2022-11-11T14:20:32;102363.47;;;17.00
45393;BMP280;31129;44.810;10.334;2022-11-11T14:28:56;102352.25;;;16.88
45393;BMP280;31129;44.810;10.334;2022-11-11T14:38:25;102352.69;;;16.87
45393;BMP280;31129;44.810;10.334;2022-11-11T14:41:48;102355.22;;;16.76
45393;BMP280;31129;44.810;10.334;2022-11-11T14:47:22;102340.28;;;16.68
45393;BMP280;31129;44.810;10.334;2022-11-11T14:53:19;102336.19;;;16.54
45393;BMP280;31129;44.810;10.334;2022-11-11T14:56:13;102333.44;;;16.54
45393;BMP280;31129;44.810;10.334;2022-11-11T14:59:05;102329.22;;;16.44
45393;BMP280;31129;44.810;10.334;2022-11-11T15:01:50;102325.69;;;16.43
45393;BMP280;31129;44.810;10.334;2022-11-11T15:04:37;102313.31;;;16.39
45393;BMP280;31129;44.810;10.334;2022-11-11T15:07:30;102315.16;;;16.33
45393;BMP280;31129;44.810;10.334;2022-11-11T15:10:28;102314.88;;;16.31
45393;BMP280;31129;44.810;10.334;2022-11-11T15:13:34;102307.84;;;16.30
45393;BMP280;31129;44.810;10.334;2022-11-11T15:19:58;102304.38;;;16.20
45393;BMP280;31129;44.810;10.334;2022-11-11T15:29:55;102289.75;;;16.05
45393;BMP280;31129;44.810;10.334;2022-11-11T15:36:07;102294.94;;;16.03
45393;BMP280;31129;44.810;10.334;2022-11-11T15:38:52;102291.78;;;15.95
45393;BMP280;31129;44.810;10.334;2022-11-11T15:41:39;102290.72;;;15.93
45393;BMP280;31129;44.810;10.334;2022-11-11T15:44:27;102287.97;;;15.93
45393;BMP280;31129;44.810;10.334;2022-11-11T15:47:12;102287.97;;;15.84
45393;BMP280;31129;44.810;10.334;2022-11-11T15:49:58;102277.44;;;15.82
45393;BMP280;31129;44.810;10.334;2022-11-11T15:52:42;102277.31;;;15.76
45393;BMP280;31129;44.810;10.334;2022-11-11T15:55:29;102279.75;;;15.74
45393;BMP280;31129;44.810;10.334;2022-11-11T15:58:16;102269.19;;;15.73
45393;BMP280;31129;44.810;10.334;2022-11-11T16:01:04;102271.34;;;15.69
45393;BMP280;31129;44.810;10.334;2022-11-11T16:03:49;102275.63;;;15.70
45393;BMP280;31129;44.810;10.334;2022-11-11T16:06:34;102281.59;;;15.68
45393;BMP280;31129;44.810;10.334;2022-11-11T16:09:27;102276.28;;;15.65
45393;BMP280;31129;44.810;10.334;2022-11-11T16:12:21;102271.22;;;15.63
45393;BMP280;31129;44.810;10.334;2022-11-11T16:15:08;102282.53;;;15.56
45393;BMP280;31129;44.810;10.334;2022-11-11T16:17:59;102279.19;;;15.52
45393;BMP280;31129;44.810;10.334;2022-11-11T16:20:59;102282.25;;;15.54
45393;BMP280;31129;44.810;10.334;2022-11-11T16:23:45;102278.28;;;15.55
45393;BMP280;31129;44.810;10.334;2022-11-11T16:26:33;102279.97;;;15.53
45393;BMP280;31129;44.810;10.334;2022-11-11T16:29:17;102290.66;;;15.51
45393;BMP280;31129;44.810;10.334;2022-11-11T16:32:17;102277.38;;;15.49
45393;BMP280;31129;44.810;10.334;2022-11-11T16:35:01;102278.16;;;15.50
45393;BMP280;31129;44.810;10.334;2022-11-11T16:37:53;102277.84;;;15.48
45393;BMP280;31129;44.810;10.334;2022-11-11T16:40:41;102282.13;;;15.49
45393;BMP280;31129;44.810;10.334;2022-11-11T16:43:41;102285.16;;;15.41
45393;BMP280;31129;44.810;10.334;2022-11-11T16:46:38;102285.94;;;15.42
45393;BMP280;31129;44.810;10.334;2022-11-11T16:49:30;102279.66;;;15.41
45393;BMP280;31129;44.810;10.334;2022-11-11T16:52:21;102279.34;;;15.39
45393;BMP280;31129;44.810;10.334;2022-11-11T16:55:10;102271.59;;;15.38
45393;BMP280;31129;44.810;10.334;2022-11-11T16:58:09;102269.28;;;15.36
45393;BMP280;31129;44.810;10.334;2022-11-11T17:00:59;102262.88;;;15.30
45393;BMP280;31129;44.810;10.334;2022-11-11T17:04:02;102267.78;;;15.26
45393;BMP280;31129;44.810;10.334;2022-11-11T17:06:53;102270.06;;;15.28
45393;BMP280;31129;44.810;10.334;2022-11-11T17:09:41;102270.84;;;15.19
45393;BMP280;31129;44.810;10.334;2022-11-11T17:12:29;102262.59;;;15.19
45393;BMP280;31129;44.810;10.334;2022-11-11T17:15:17;102262.91;;;15.21
45393;BMP280;31129;44.810;10.334;2022-11-11T17:18:01;102269.31;;;15.18
45393;BMP280;31129;44.810;10.334;2022-11-11T17:20:45;102263.63;;;15.13
45393;BMP280;31129;44.810;10.334;2022-11-11T17:23:30;102267.31;;;15.10
45393;BMP280;31129;44.810;10.334;2022-11-11T17:26:16;102274.03;;;15.09
45393;BMP280;31129;44.810;10.334;2022-11-11T17:29:00;102275.75;;;15.15
45393;BMP280;31129;44.810;10.334;2022-11-11T17:31:44;102279.09;;;15.19
45393;BMP280;31129;44.810;10.334;2022-11-11T17:34:28;102284.59;;;15.10
45393;BMP280;31129;44.810;10.334;2022-11-11T17:37:12;102290.72;;;15.05
45393;BMP280;31129;44.810;10.334;2022-11-11T17:39:55;102284.28;;;15.08
45393;BMP280;31129;44.810;10.334;2022-11-11T17:42:42;102285.50;;;15.07
45393;BMP280;31129;44.810;10.334;2022-11-11T17:45:26;102282.59;;;15.01
45393;BMP280;31129;44.810;10.334;2022-11-11T17:48:11;102296.81;;;15.00
45393;BMP280;31129;44.810;10.334;2022-11-11T17:50:56;102294.97;;;14.97
45393;BMP280;31129;44.810;10.334;2022-11-11T17:53:40;102290.22;;;14.97
45393;BMP280;31129;44.810;10.334;2022-11-11T17:56:24;102297.09;;;14.93
45393;BMP280;31129;44.810;10.334;2022-11-11T17:59:09;102296.03;;;14.90